Time;durP1;ratioP1;P1;durP2;ratioP2;P2;SDS_P1;SDS_P2;PMS_P1;PMS_P2;Temp;Humidity;BMP_temperature;BMP_pressure;BME280_temperature;BME280_humidity;BME280_pressure;Samples;Min_cycle;Max_cycle;Signal;HPM_P1;HPM_P2
2020/12/09 00:02:20;;;;;;;35.30;20.05;;;1.80;99.90;;;;;;5048797;28;20601;-74
2020/12/09 00:04:47;;;;;;;31.38;19.88;;;1.80;99.90;;;;;;5049650;28;20700;-73
2020/12/09 00:07:13;;;;;;;32.42;21.55;;;1.80;99.90;;;;;;5049598;28;20216;-74
2020/12/09 00:09:40;;;;;;;28.30;18.45;;;1.70;99.90;;;;;;5049444;28;20281;-74
2020/12/09 00:12:06;;;;;;;31.63;19.88;;;1.80;99.90;;;;;;5048937;28;20225;-74
2020/12/09 00:14:32;;;;;;;31.08;19.13;;;1.80;99.90;;;;;;5049213;28;20212;-73
2020/12/09 00:16:59;;;;;;;35.67;19.75;;;1.80;99.90;;;;;;5049408;28;20208;-73
2020/12/09 00:19:25;;;;;;;32.20;19.38;;;1.80;99.90;;;;;;5048800;28;20240;-73
2020/12/09 00:21:52;;;;;;;34.28;20.52;;;1.80;99.90;;;;;;5048697;28;20339;-73
2020/12/09 00:24:18;;;;;;;31.75;18.38;;;1.80;99.90;;;;;;5049070;28;20687;-72
2020/12/09 00:26:44;;;;;;;29.77;19.40;;;1.80;99.90;;;;;;5049115;28;20205;-73
2020/12/09 00:29:11;;;;;;;34.15;20.05;;;1.80;99.90;;;;;;5048640;28;20201;-72
2020/12/09 00:31:37;;;;;;;31.60;20.58;;;1.70;99.90;;;;;;5048278;28;20579;-73
2020/12/09 00:34:04;;;;;;;32.70;21.85;;;1.80;99.90;;;;;;5049073;28;20606;-73
2020/12/09 00:36:30;;;;;;;30.98;18.67;;;1.80;99.90;;;;;;5048873;28;20548;-73
2020/12/09 00:38:57;;;;;;;35.97;20.77;;;1.80;99.90;;;;;;5049003;28;20228;-73
2020/12/09 00:41:25;;;;;;;31.63;20.23;;;1.90;99.90;;;;;;5048837;28;20212;-73
2020/12/09 00:43:52;;;;;;;32.38;20.40;;;1.80;99.90;;;;;;5048253;28;20228;-73
2020/12/09 00:46:19;;;;;;;32.25;19.65;;;1.80;99.90;;;;;;5048678;28;20224;-73
2020/12/09 00:48:46;;;;;;;36.30;21.02;;;1.80;99.90;;;;;;5048652;28;20208;-73
2020/12/09 00:51:13;;;;;;;33.90;21.67;;;1.80;99.90;;;;;;5048732;28;20721;-73
2020/12/09 00:53:40;;;;;;;34.67;20.55;;;1.90;99.90;;;;;;5046776;28;20221;-73
2020/12/09 00:56:08;;;;;;;33.38;18.00;;;1.90;99.90;;;;;;5048132;28;20424;-73
2020/12/09 00:58:34;;;;;;;30.50;19.25;;;1.80;99.90;;;;;;5048827;28;20220;-73
2020/12/09 01:01:00;;;;;;;31.60;19.95;;;1.90;99.90;;;;;;5048397;28;20381;-73
2020/12/09 01:03:27;;;;;;;33.05;20.92;;;1.90;99.90;;;;;;5047965;28;20307;-73
2020/12/09 01:05:54;;;;;;;33.05;19.75;;;1.90;99.90;;;;;;5048181;28;20209;-73
2020/12/09 01:08:20;;;;;;;32.92;19.40;;;1.90;99.90;;;;;;5048408;28;20231;-73
2020/12/09 01:10:46;;;;;;;34.40;20.17;;;2.00;99.90;;;;;;5048437;28;20205;-73
2020/12/09 01:13:14;;;;;;;33.03;20.58;;;1.90;99.90;;;;;;5047734;28;20221;-73
2020/12/09 01:15:40;;;;;;;31.63;18.52;;;1.90;99.90;;;;;;5048514;28;20246;-73
2020/12/09 01:18:07;;;;;;;29.63;18.40;;;1.90;99.90;;;;;;5048362;28;20251;-73
2020/12/09 01:20:33;;;;;;;32.83;20.17;;;1.90;99.90;;;;;;5048622;28;20216;-73
2020/12/09 01:22:59;;;;;;;30.50;18.70;;;1.90;99.90;;;;;;5047687;28;20228;-73
2020/12/09 01:25:25;;;;;;;33.20;20.15;;;1.90;99.90;;;;;;5048396;28;20240;-73
2020/12/09 01:27:53;;;;;;;30.40;18.40;;;1.90;99.90;;;;;;5048239;28;20672;-73
2020/12/09 01:30:20;;;;;;;32.15;20.20;;;1.90;99.90;;;;;;5049433;28;20197;-73
2020/12/09 01:32:46;;;;;;;32.33;19.73;;;1.90;99.90;;;;;;5051882;28;20231;-73
2020/12/09 01:35:13;;;;;;;34.40;20.05;;;1.90;99.90;;;;;;5052337;28;20219;-73
2020/12/09 01:37:39;;;;;;;32.03;18.95;;;1.90;99.90;;;;;;5052566;28;20433;-73
2020/12/09 01:40:05;;;;;;;35.67;20.85;;;2.00;99.90;;;;;;5052185;28;20228;-73
2020/12/09 01:42:31;;;;;;;35.20;19.40;;;2.00;99.90;;;;;;5051828;28;20225;-73
2020/12/09 01:44:58;;;;;;;33.05;19.83;;;2.00;99.90;;;;;;5051768;28;20201;-73
2020/12/09 01:47:25;;;;;;;37.20;21.13;;;2.00;99.90;;;;;;5052179;28;20901;-72
2020/12/09 01:49:52;;;;;;;33.25;21.35;;;2.00;99.90;;;;;;5052434;28;20208;-73
2020/12/09 01:52:19;;;;;;;36.05;19.52;;;2.00;99.90;;;;;;5051394;28;20221;-72
2020/12/09 01:54:49;;;;;;;34.53;19.75;;;2.00;99.90;;;;;;5052432;28;20216;-73
2020/12/09 01:57:16;;;;;;;36.85;21.52;;;2.00;99.90;;;;;;5052141;28;20213;-73
2020/12/09 01:59:42;;;;;;;33.38;20.23;;;2.00;99.90;;;;;;5052403;28;20217;-73
2020/12/09 02:02:09;;;;;;;34.33;21.23;;;2.10;99.90;;;;;;5051485;28;20221;-73
2020/12/09 02:04:36;;;;;;;35.72;20.55;;;2.10;99.90;;;;;;5052369;28;20212;-73
2020/12/09 02:07:03;;;;;;;33.15;20.10;;;2.10;99.90;;;;;;5052200;28;20695;-73
2020/12/09 02:09:30;;;;;;;33.15;20.35;;;2.10;99.90;;;;;;5052035;28;20198;-73
2020/12/09 02:11:57;;;;;;;34.25;20.67;;;2.10;99.90;;;;;;5051441;28;20235;-73
2020/12/09 02:14:24;;;;;;;37.40;20.30;;;2.10;99.90;;;;;;5051728;28;20209;-73
2020/12/09 02:16:50;;;;;;;32.05;19.30;;;2.10;99.90;;;;;;5052002;28;20212;-73
2020/12/09 02:19:17;;;;;;;37.28;20.48;;;2.10;99.90;;;;;;5051893;28;20221;-74
2020/12/09 02:21:44;;;;;;;39.47;22.33;;;2.10;99.90;;;;;;5051549;28;20541;-73
2020/12/09 02:24:10;;;;;;;34.40;20.23;;;2.20;99.90;;;;;;5052078;28;20201;-73
2020/12/09 02:26:41;;;;;;;32.08;19.45;;;2.10;99.90;;;;;;5052413;28;20201;-73
2020/12/09 02:29:08;;;;;;;31.15;18.92;;;2.20;99.90;;;;;;5052027;28;20220;-73
2020/12/09 02:31:34;;;;;;;32.17;22.02;;;2.10;99.90;;;;;;5051575;28;20208;-73
2020/12/09 02:34:00;;;;;;;35.83;20.73;;;2.10;99.90;;;;;;5051693;28;20747;-73
2020/12/09 02:36:26;;;;;;;33.50;21.63;;;2.10;99.90;;;;;;5051501;28;20211;-73
2020/12/09 02:38:53;;;;;;;39.67;21.33;;;2.10;99.90;;;;;;5051595;28;20262;-73
2020/12/09 02:41:19;;;;;;;38.17;20.73;;;2.10;99.90;;;;;;5051558;28;20212;-73
2020/12/09 02:43:46;;;;;;;35.15;21.42;;;2.10;99.90;;;;;;5051094;28;20731;-73
2020/12/09 02:46:12;;;;;;;33.22;20.73;;;2.10;99.90;;;;;;5051522;28;20205;-72
2020/12/09 02:48:38;;;;;;;33.03;20.42;;;2.10;99.90;;;;;;5051572;28;20232;-73
2020/12/09 02:51:04;;;;;;;35.63;21.50;;;2.10;99.90;;;;;;5051678;28;20547;-72
2020/12/09 02:53:30;;;;;;;31.35;18.98;;;2.00;99.90;;;;;;5051443;28;20227;-73
2020/12/09 02:55:58;;;;;;;34.15;20.15;;;2.00;99.90;;;;;;5051912;28;20204;-72
2020/12/09 02:58:25;;;;;;;37.58;20.88;;;2.00;99.90;;;;;;5051625;28;20547;-73
2020/12/09 03:00:52;;;;;;;33.35;21.52;;;2.00;99.90;;;;;;5051209;28;20201;-73
2020/12/09 03:03:18;;;;;;;36.95;20.92;;;2.10;99.90;;;;;;5050659;28;20221;-74
2020/12/09 03:05:45;;;;;;;33.20;20.65;;;2.10;99.90;;;;;;5051178;28;20213;-73
2020/12/09 03:08:11;;;;;;;34.63;21.63;;;2.10;99.90;;;;;;5051009;28;20208;-73
2020/12/09 03:10:37;;;;;;;39.47;23.05;;;2.20;99.90;;;;;;5051089;28;20201;-73
2020/12/09 03:13:04;;;;;;;34.53;21.08;;;2.10;99.90;;;;;;5050378;28;20221;-74
2020/12/09 03:15:30;;;;;;;35.05;21.35;;;2.10;99.90;;;;;;5050967;28;20205;-73
2020/12/09 03:17:56;;;;;;;34.00;21.85;;;2.10;99.90;;;;;;5050973;28;20208;-73
2020/12/09 03:20:23;;;;;;;38.05;21.77;;;2.10;99.90;;;;;;5050739;28;20232;-73
2020/12/09 03:22:49;;;;;;;33.55;19.45;;;2.10;99.90;;;;;;5050351;28;20217;-73
2020/12/09 03:25:15;;;;;;;33.55;20.45;;;2.10;99.90;;;;;;5050669;28;20208;-73
2020/12/09 03:27:41;;;;;;;34.42;20.65;;;2.10;99.90;;;;;;5050588;28;20201;-73
2020/12/09 03:30:09;;;;;;;32.65;22.00;;;2.20;99.90;;;;;;5050800;28;20733;-73
2020/12/09 03:32:35;;;;;;;33.92;21.38;;;2.20;99.90;;;;;;5049988;28;20738;-73
2020/12/09 03:35:01;;;;;;;37.40;20.70;;;2.10;99.90;;;;;;5050351;28;20680;-73
2020/12/09 03:37:27;;;;;;;37.30;22.50;;;2.10;99.90;;;;;;5050645;28;20205;-74
2020/12/09 03:39:53;;;;;;;36.78;20.95;;;2.20;99.90;;;;;;5050324;28;20271;-73
2020/12/09 03:42:20;;;;;;;35.60;22.92;;;2.10;99.90;;;;;;5049592;28;20228;-73
2020/12/09 03:44:46;;;;;;;36.90;23.23;;;2.20;99.90;;;;;;5050281;28;20323;-73
2020/12/09 03:47:13;;;;;;;38.70;22.80;;;2.20;99.90;;;;;;5050183;28;20205;-73
2020/12/09 03:49:39;;;;;;;37.63;22.42;;;2.20;99.90;;;;;;5050403;28;20208;-74
2020/12/09 03:52:05;;;;;;;40.20;21.95;;;2.20;99.90;;;;;;5049169;28;20233;-73
2020/12/09 03:54:31;;;;;;;35.05;22.42;;;2.20;99.90;;;;;;5049632;28;20205;-73
2020/12/09 03:56:58;;;;;;;39.60;22.33;;;2.20;99.90;;;;;;5049852;28;20205;-73
2020/12/09 03:59:24;;;;;;;34.45;21.08;;;2.20;99.90;;;;;;5050070;28;20221;-73
2020/12/09 04:01:50;;;;;;;35.00;20.35;;;2.20;99.90;;;;;;5049770;28;20240;-72
2020/12/09 04:04:17;;;;;;;30.48;21.27;;;2.20;99.90;;;;;;5049777;28;20208;-72
2020/12/09 04:06:43;;;;;;;35.72;23.27;;;2.20;99.90;;;;;;5050028;28;20201;-73
2020/12/09 04:09:09;;;;;;;34.17;22.17;;;2.20;99.90;;;;;;5049563;28;20197;-73
2020/12/09 04:11:36;;;;;;;36.20;22.08;;;2.20;99.90;;;;;;5049284;28;20405;-73
2020/12/09 04:14:02;;;;;;;33.97;21.35;;;2.20;99.90;;;;;;5049485;28;20379;-73
2020/12/09 04:16:28;;;;;;;35.58;22.05;;;2.20;99.90;;;;;;5049735;28;20759;-73
2020/12/09 04:18:54;;;;;;;37.70;22.02;;;2.20;99.90;;;;;;5049486;28;20348;-73
2020/12/09 04:21:21;;;;;;;31.23;21.35;;;2.20;99.90;;;;;;5049251;28;20471;-74
2020/12/09 04:23:47;;;;;;;36.03;22.38;;;2.30;99.90;;;;;;5049368;28;20239;-73
2020/12/09 04:26:14;;;;;;;38.53;22.17;;;2.30;99.90;;;;;;5049244;28;20263;-74
2020/12/09 04:28:40;;;;;;;33.90;20.50;;;2.30;99.90;;;;;;5049543;28;20760;-74
2020/12/09 04:31:06;;;;;;;33.35;19.55;;;2.30;99.90;;;;;;5049068;28;20699;-74
2020/12/09 04:33:32;;;;;;;37.40;22.23;;;2.30;99.90;;;;;;5048908;28;20665;-74
2020/12/09 04:36:01;;;;;;;33.15;21.67;;;2.30;99.90;;;;;;5049132;28;20610;-74
2020/12/09 04:38:29;;;;;;;35.05;22.63;;;2.30;99.90;;;;;;5049039;28;20606;-75
2020/12/09 04:40:55;;;;;;;36.05;21.98;;;2.30;99.90;;;;;;5049192;28;20232;-74
2020/12/09 04:43:21;;;;;;;34.35;20.25;;;2.20;99.90;;;;;;5048487;28;20221;-74
2020/12/09 04:45:47;;;;;;;32.72;21.35;;;2.20;99.90;;;;;;5049375;28;20215;-72
2020/12/09 04:48:16;;;;;;;33.33;21.55;;;2.30;99.90;;;;;;5048720;28;20204;-74
2020/12/09 04:50:58;;;;;;;34.17;21.35;;;2.30;99.90;;;;;;5049304;28;20547;-73
2020/12/09 04:53:26;;;;;;;32.97;19.95;;;2.20;99.90;;;;;;5049159;28;20248;-73
2020/12/09 04:55:54;;;;;;;28.85;19.20;;;2.20;99.90;;;;;;5049592;28;20211;-73
2020/12/09 04:58:38;;;;;;;31.05;20.25;;;2.20;99.90;;;;;;5049247;28;20211;-74
2020/12/09 05:01:07;;;;;;;32.40;21.20;;;2.20;99.90;;;;;;5048802;28;20197;-73
2020/12/09 05:03:44;;;;;;;31.13;20.70;;;2.20;99.90;;;;;;5047491;28;20584;-73
2020/12/09 05:06:13;;;;;;;30.23;19.55;;;2.30;99.90;;;;;;5046946;28;20221;-73
2020/12/09 05:08:43;;;;;;;35.63;20.85;;;2.20;99.90;;;;;;5047475;28;20204;-72
2020/12/09 05:11:13;;;;;;;32.33;20.13;;;2.20;99.90;;;;;;5047907;28;20201;-73
2020/12/09 05:13:42;;;;;;;29.40;19.38;;;2.20;99.90;;;;;;5048431;28;20225;-73
2020/12/09 05:16:16;;;;;;;30.75;20.15;;;2.20;99.90;;;;;;5048641;28;20209;-73
2020/12/09 05:18:43;;;;;;;34.00;19.52;;;2.20;99.90;;;;;;5048867;28;20205;-73
2020/12/09 05:21:13;;;;;;;35.35;21.23;;;2.10;99.90;;;;;;5048435;28;20197;-73
2020/12/09 05:23:50;;;;;;;32.50;21.98;;;2.10;99.90;;;;;;5047804;28;20228;-73
2020/12/09 05:26:25;;;;;;;30.33;18.98;;;2.10;99.90;;;;;;5048305;28;20205;-73
2020/12/09 05:29:11;;;;;;;27.63;18.60;;;2.10;99.90;;;;;;5048086;28;20676;-72
2020/12/09 05:31:39;;;;;;;28.48;20.00;;;2.10;99.90;;;;;;5047928;28;20228;-72
2020/12/09 05:34:24;;;;;;;30.20;19.40;;;2.10;99.90;;;;;;5071197;28;20227;-73
2020/12/09 05:36:51;;;;;;;27.27;17.85;;;2.00;99.90;;;;;;5070183;28;20207;-73
2020/12/09 05:39:18;;;;;;;29.95;18.58;;;2.00;99.90;;;;;;5064649;28;20446;-73
2020/12/09 05:41:45;;;;;;;31.77;19.85;;;2.00;99.90;;;;;;5055370;28;20197;-74
2020/12/09 05:44:11;;;;;;;36.45;20.58;;;1.90;99.90;;;;;;5076287;28;20199;-73
2020/12/09 05:46:59;;;;;;;33.55;20.02;;;1.90;99.90;;;;;;5075235;28;20196;-74
2020/12/09 05:49:31;;;;;;;26.85;18.70;;;1.90;99.90;;;;;;5086845;28;20212;-74
2020/12/09 05:52:09;;;;;;;30.05;18.92;;;1.90;99.90;;;;;;5086498;28;20219;-74
2020/12/09 05:54:37;;;;;;;29.40;18.30;;;1.90;99.90;;;;;;5076047;28;20211;-73
2020/12/09 05:57:06;;;;;;;28.30;18.80;;;1.90;99.90;;;;;;5066111;28;20208;-74
2020/12/09 05:59:36;;;;;;;29.88;19.45;;;1.90;99.90;;;;;;5059155;28;20270;-74
2020/12/09 06:02:06;;;;;;;30.45;19.17;;;2.00;99.90;;;;;;5061243;28;20221;-76
2020/12/09 06:04:53;;;;;;;32.75;19.60;;;2.00;99.90;;;;;;5069297;28;20906;-76
2020/12/09 06:07:20;;;;;;;29.85;19.58;;;2.00;99.90;;;;;;5080210;28;20204;-76
2020/12/09 06:10:08;;;;;;;27.70;19.42;;;2.00;99.90;;;;;;5090903;28;20196;-76
2020/12/09 06:12:52;;;;;;;28.30;18.20;;;2.00;99.90;;;;;;5087895;28;20238;-75
2020/12/09 06:15:19;;;;;;;31.48;17.80;;;2.00;99.90;;;;;;5128943;22;20228;-78
2020/12/09 06:17:46;;;;;;;33.38;19.75;;;2.10;99.90;;;;;;5049252;28;20211;-77
2020/12/09 06:20:12;;;;;;;28.08;18.48;;;2.00;99.90;;;;;;5051801;28;20217;-77
2020/12/09 06:22:38;;;;;;;29.63;18.85;;;1.90;99.90;;;;;;5051924;28;20308;-77
2020/12/09 06:25:05;;;;;;;28.33;18.02;;;2.00;99.90;;;;;;5057638;28;20208;-78
2020/12/09 06:27:33;;;;;;;27.73;19.33;;;2.00;99.90;;;;;;5072752;28;20204;-76
2020/12/09 06:30:01;;;;;;;30.88;18.15;;;2.00;99.90;;;;;;5070700;28;20703;-76
2020/12/09 06:32:27;;;;;;;27.98;19.17;;;2.00;99.90;;;;;;5069319;28;20259;-76
2020/12/09 06:35:06;;;;;;;28.58;18.05;;;2.00;99.90;;;;;;5071024;28;20213;-76
2020/12/09 06:37:33;;;;;;;29.65;17.92;;;2.00;99.90;;;;;;5071523;28;20214;-76
2020/12/09 06:40:10;;;;;;;29.05;18.70;;;2.00;99.90;;;;;;5070828;28;20254;-76
2020/12/09 06:42:37;;;;;;;26.83;18.15;;;2.00;99.90;;;;;;5071233;28;20247;-77
2020/12/09 06:45:05;;;;;;;25.23;17.80;;;2.00;99.90;;;;;;5071204;28;20211;-77
2020/12/09 06:47:32;;;;;;;26.08;18.10;;;2.10;99.90;;;;;;5071024;28;20201;-77
2020/12/09 06:50:00;;;;;;;28.38;18.10;;;2.10;99.90;;;;;;5071131;28;20193;-76
2020/12/09 06:52:36;;;;;;;31.05;19.05;;;2.10;99.90;;;;;;5070314;28;20231;-76
2020/12/09 06:55:08;;;;;;;31.35;20.27;;;2.10;99.90;;;;;;5070832;28;20667;-76
2020/12/09 06:57:38;;;;;;;30.90;19.75;;;2.10;99.90;;;;;;5071066;28;20207;-76
2020/12/09 07:00:23;;;;;;;32.55;19.25;;;2.10;99.90;;;;;;5070606;28;20699;-76
2020/12/09 07:02:52;;;;;;;30.38;18.98;;;2.10;99.90;;;;;;5070447;28;20220;-76
2020/12/09 07:05:20;;;;;;;30.55;19.30;;;2.10;99.90;;;;;;5070777;28;20295;-76
2020/12/09 07:07:48;;;;;;;30.42;19.10;;;2.10;99.90;;;;;;5071049;28;20200;-76
2020/12/09 07:10:26;;;;;;;27.30;18.13;;;2.10;99.90;;;;;;5070673;28;20212;-76
2020/12/09 07:13:07;;;;;;;31.63;19.77;;;2.10;99.90;;;;;;5069998;28;20224;-76
2020/12/09 07:15:36;;;;;;;33.10;19.17;;;2.10;99.90;;;;;;5070477;28;20212;-76
2020/12/09 07:18:04;;;;;;;30.95;20.88;;;2.10;99.90;;;;;;5070480;28;20676;-76
2020/12/09 07:20:30;;;;;;;28.48;19.17;;;2.00;99.90;;;;;;5069953;28;20220;-76
2020/12/09 07:22:56;;;;;;;33.65;21.15;;;2.10;99.90;;;;;;5069382;28;20220;-76
2020/12/09 07:25:22;;;;;;;30.75;19.88;;;2.10;99.90;;;;;;5070426;28;20207;-76
2020/12/09 07:27:49;;;;;;;32.20;19.40;;;2.10;99.90;;;;;;5069160;28;20197;-76
2020/12/09 07:30:18;;;;;;;29.67;19.17;;;2.00;99.90;;;;;;5070259;28;20286;-76
2020/12/09 07:32:47;;;;;;;30.75;19.23;;;2.10;99.90;;;;;;5069253;28;20229;-76
2020/12/09 07:35:14;;;;;;;30.27;20.58;;;2.10;99.90;;;;;;5073834;28;20200;-77
2020/12/09 07:37:43;;;;;;;30.75;20.58;;;2.00;99.90;;;;;;5090503;28;20729;-76
2020/12/09 07:40:16;;;;;;;36.03;20.88;;;2.10;99.90;;;;;;5089783;28;20296;-76
2020/12/09 07:42:43;;;;;;;27.60;19.50;;;2.10;99.90;;;;;;5089897;28;20273;-77
2020/12/09 07:45:16;;;;;;;30.83;19.13;;;2.10;99.90;;;;;;5070783;28;20211;-77
2020/12/09 07:47:43;;;;;;;29.50;19.10;;;2.10;99.90;;;;;;5070636;28;20215;-77
2020/12/09 07:50:11;;;;;;;29.38;19.27;;;2.20;99.90;;;;;;5069820;28;20208;-77
2020/12/09 07:52:39;;;;;;;29.27;18.90;;;2.20;99.90;;;;;;5069528;28;20270;-77
2020/12/09 07:55:08;;;;;;;33.88;21.25;;;2.20;99.90;;;;;;5069797;28;20203;-77
2020/12/09 07:57:36;;;;;;;29.58;18.23;;;2.10;99.90;;;;;;5069949;28;20208;-77
2020/12/09 08:00:07;;;;;;;32.75;19.13;;;2.20;99.90;;;;;;5069746;28;20723;-76
2020/12/09 08:02:38;;;;;;;31.27;19.45;;;2.10;99.90;;;;;;5085474;28;20747;-77
2020/12/09 08:05:17;;;;;;;30.70;19.42;;;2.10;99.90;;;;;;5088447;28;20199;-76
2020/12/09 08:07:53;;;;;;;27.90;18.52;;;2.10;99.90;;;;;;5066836;28;20889;-76
2020/12/09 08:10:23;;;;;;;29.92;18.45;;;2.10;99.90;;;;;;5067736;28;20216;-76
2020/12/09 08:12:49;;;;;;;28.88;18.40;;;2.20;99.90;;;;;;5066488;28;20212;-76
2020/12/09 08:15:16;;;;;;;32.00;19.65;;;2.20;99.90;;;;;;5066053;28;20299;-77
2020/12/09 08:17:48;;;;;;;29.88;19.45;;;2.20;99.90;;;;;;5067135;28;20676;-75
2020/12/09 08:20:17;;;;;;;31.58;20.40;;;2.20;99.90;;;;;;5066992;28;20216;-76
2020/12/09 08:22:54;;;;;;;34.63;20.90;;;2.20;99.90;;;;;;5070935;28;20223;-77
2020/12/09 08:25:21;;;;;;;32.13;19.33;;;2.20;99.90;;;;;;5067759;28;20554;-77
2020/12/09 08:27:48;;;;;;;28.42;19.40;;;2.30;99.90;;;;;;5065880;28;20208;-76
2020/12/09 08:30:19;;;;;;;32.13;19.35;;;2.30;99.90;;;;;;5066822;28;20250;-76
2020/12/09 08:33:00;;;;;;;27.35;17.17;;;2.20;99.90;;;;;;5066946;28;20223;-76
2020/12/09 08:35:29;;;;;;;29.48;18.98;;;2.30;99.90;;;;;;5067320;28;20205;-76
2020/12/09 08:37:55;;;;;;;29.10;18.10;;;2.30;99.90;;;;;;5066823;28;20208;-76
2020/12/09 08:40:22;;;;;;;27.73;19.10;;;2.30;99.90;;;;;;5065995;28;20713;-76
2020/12/09 08:42:56;;;;;;;25.92;19.25;;;2.30;99.90;;;;;;5066369;28;20216;-76
2020/12/09 08:45:22;;;;;;;27.23;18.65;;;2.30;99.90;;;;;;5073584;28;20203;-77
2020/12/09 08:47:49;;;;;;;30.50;19.55;;;2.30;99.90;;;;;;5072066;28;20201;-77
2020/12/09 08:50:16;;;;;;;26.85;18.50;;;2.30;99.90;;;;;;5076961;28;20202;-77
2020/12/09 08:52:43;;;;;;;29.92;18.58;;;2.40;99.90;;;;;;5066800;28;20449;-77
2020/12/09 08:55:09;;;;;;;32.20;19.45;;;2.40;99.90;;;;;;5067195;28;20246;-77
2020/12/09 08:57:36;;;;;;;32.50;19.00;;;2.30;99.90;;;;;;5074894;28;20203;-76
2020/12/09 09:00:03;;;;;;;30.13;19.40;;;2.40;99.90;;;;;;5066283;28;20220;-76
2020/12/09 09:02:29;;;;;;;34.22;20.10;;;2.40;99.90;;;;;;5053007;28;20624;-76
2020/12/09 09:04:55;;;;;;;29.88;19.17;;;2.50;99.90;;;;;;5066940;28;20207;-76
2020/12/09 09:07:21;;;;;;;35.47;20.98;;;2.40;99.90;;;;;;5066892;28;20668;-76
2020/12/09 09:09:49;;;;;;;32.83;19.48;;;2.40;99.90;;;;;;5069001;28;20200;-76
2020/12/09 09:12:15;;;;;;;34.75;21.25;;;2.40;99.90;;;;;;5067397;28;20228;-76
2020/12/09 09:14:41;;;;;;;26.77;18.85;;;2.40;99.90;;;;;;5068582;28;20232;-76
2020/12/09 09:17:07;;;;;;;28.33;18.55;;;2.40;99.90;;;;;;5066197;28;20662;-76
2020/12/09 09:19:33;;;;;;;31.02;19.80;;;2.40;99.90;;;;;;5067181;28;20693;-76
2020/12/09 09:22:00;;;;;;;29.88;18.80;;;2.40;99.90;;;;;;5076873;28;20224;-76
2020/12/09 09:24:26;;;;;;;31.27;21.00;;;2.40;99.90;;;;;;5082002;28;20562;-76
2020/12/09 09:26:53;;;;;;;31.23;19.05;;;2.30;99.90;;;;;;5067092;28;20746;-78
2020/12/09 09:29:19;;;;;;;33.22;21.50;;;2.30;99.90;;;;;;5065415;28;20612;-75
2020/12/09 09:31:45;;;;;;;29.17;19.08;;;2.30;99.90;;;;;;5068971;28;20207;-75
2020/12/09 09:34:11;;;;;;;30.90;19.35;;;2.30;99.90;;;;;;5073348;28;20223;-75
2020/12/09 09:36:41;;;;;;;33.83;21.83;;;2.30;99.90;;;;;;5070352;28;20200;-76
2020/12/09 09:39:07;;;;;;;39.13;22.05;;;2.40;99.90;;;;;;5068127;28;20699;-76
2020/12/09 09:41:35;;;;;;;33.58;22.17;;;2.40;99.90;;;;;;5065578;28;20231;-75
2020/12/09 09:44:03;;;;;;;32.20;21.88;;;2.40;99.90;;;;;;5066311;28;20207;-76
2020/12/09 09:46:29;;;;;;;37.47;22.35;;;2.50;99.90;;;;;;5066594;28;20204;-76
2020/12/09 09:48:55;;;;;;;38.28;20.10;;;2.50;99.90;;;;;;5065341;28;20211;-76
2020/12/09 09:51:21;;;;;;;38.22;23.00;;;2.50;99.90;;;;;;5067751;28;20269;-78
2020/12/09 09:53:47;;;;;;;33.90;21.52;;;2.60;99.90;;;;;;5073558;28;20273;-76
2020/12/09 09:56:13;;;;;;;35.58;23.15;;;2.60;99.90;;;;;;5070756;28;20201;-76
2020/12/09 09:58:40;;;;;;;38.55;22.05;;;2.60;99.90;;;;;;5083808;28;20575;-75
2020/12/09 10:01:07;;;;;;;36.85;22.75;;;2.60;99.90;;;;;;5069026;28;20219;-75
2020/12/09 10:03:33;;;;;;;34.13;22.35;;;2.60;99.90;;;;;;5069512;28;20719;-76
2020/12/09 10:05:59;;;;;;;34.20;22.42;;;2.60;99.90;;;;;;5071367;28;20215;-75
2020/12/09 10:08:25;;;;;;;38.58;24.63;;;2.60;99.90;;;;;;5076496;28;20695;-76
2020/12/09 10:10:51;;;;;;;41.53;24.23;;;2.60;99.90;;;;;;5069323;28;20224;-76
2020/12/09 10:13:18;;;;;;;40.75;22.73;;;2.60;99.90;;;;;;5077832;28;20228;-76
2020/12/09 10:15:44;;;;;;;37.17;23.67;;;2.60;99.90;;;;;;5068688;28;20216;-76
2020/12/09 10:18:11;;;;;;;33.42;20.67;;;2.60;99.90;;;;;;5069624;28;20774;-75
2020/12/09 10:20:37;;;;;;;36.28;21.92;;;2.60;99.90;;;;;;5069999;28;20270;-75
2020/12/09 10:23:03;;;;;;;33.97;22.45;;;2.60;99.90;;;;;;5069314;28;20227;-76
2020/12/09 10:25:29;;;;;;;30.75;20.38;;;2.60;99.90;;;;;;5069485;28;20204;-76
2020/12/09 10:27:56;;;;;;;28.02;19.95;;;2.70;99.90;;;;;;5068677;28;20203;-76
2020/12/09 10:30:22;;;;;;;29.17;19.77;;;2.70;99.90;;;;;;5070400;28;20577;-76
2020/12/09 10:32:48;;;;;;;34.88;21.80;;;2.70;99.90;;;;;;5068756;28;20568;-77
2020/12/09 10:35:15;;;;;;;31.90;20.77;;;2.60;99.90;;;;;;5069252;28;20205;-77
2020/12/09 10:37:42;;;;;;;35.80;22.23;;;2.60;99.90;;;;;;5069756;28;20193;-76
2020/12/09 10:40:08;;;;;;;32.42;21.45;;;2.60;99.90;;;;;;5080403;28;20588;-77
2020/12/09 10:42:34;;;;;;;30.83;21.00;;;2.60;99.90;;;;;;5069904;28;20293;-76
2020/12/09 10:45:00;;;;;;;34.05;20.83;;;2.60;99.90;;;;;;5068868;28;20211;-76
2020/12/09 10:47:27;;;;;;;31.80;20.67;;;2.70;99.90;;;;;;5069641;28;20208;-76
2020/12/09 10:49:53;;;;;;;34.92;20.25;;;2.70;99.90;;;;;;5068447;28;20795;-76
2020/12/09 10:52:20;;;;;;;30.98;20.00;;;2.60;99.90;;;;;;5067968;28;20224;-76
2020/12/09 10:54:46;;;;;;;30.80;20.17;;;2.70;99.90;;;;;;5069334;28;20196;-77
2020/12/09 10:57:12;;;;;;;32.15;20.83;;;2.70;99.90;;;;;;5070322;28;20200;-77
2020/12/09 10:59:39;;;;;;;30.38;19.73;;;2.70;99.90;;;;;;5069317;28;20201;-77
2020/12/09 11:02:05;;;;;;;33.20;20.52;;;2.70;99.90;;;;;;5074595;28;20227;-77
2020/12/09 11:04:32;;;;;;;27.48;19.05;;;2.70;99.90;;;;;;5069236;28;20201;-76
2020/12/09 11:06:58;;;;;;;33.60;20.98;;;2.80;99.90;;;;;;5068740;28;20236;-76
2020/12/09 11:09:25;;;;;;;31.52;20.00;;;2.80;99.90;;;;;;5069246;28;20227;-77
2020/12/09 11:11:53;;;;;;;29.60;20.45;;;2.80;99.90;;;;;;5067986;28;20578;-77
2020/12/09 11:14:20;;;;;;;27.75;18.42;;;2.80;99.90;;;;;;5068197;28;20208;-77
2020/12/09 11:16:46;;;;;;;26.83;18.83;;;2.80;99.90;;;;;;5072675;28;20203;-77
2020/12/09 11:19:12;;;;;;;29.00;19.92;;;2.80;99.90;;;;;;5082422;28;20249;-77
2020/12/09 11:21:38;;;;;;;27.80;19.63;;;2.80;99.90;;;;;;5071597;28;20231;-77
2020/12/09 11:24:05;;;;;;;32.08;20.08;;;2.80;99.90;;;;;;5070228;28;20534;-77
2020/12/09 11:26:32;;;;;;;28.27;19.83;;;2.80;99.90;;;;;;5067654;28;20207;-77
2020/12/09 11:28:58;;;;;;;28.20;18.75;;;2.80;99.90;;;;;;5068877;28;20200;-77
2020/12/09 11:31:25;;;;;;;29.80;19.83;;;2.80;99.90;;;;;;5068873;28;20385;-78
2020/12/09 11:33:52;;;;;;;32.00;19.58;;;2.80;99.90;;;;;;5067831;28;20216;-77
2020/12/09 11:36:21;;;;;;;31.58;18.40;;;2.80;99.90;;;;;;5067646;28;20205;-77
2020/12/09 11:38:47;;;;;;;28.90;18.80;;;2.80;99.90;;;;;;5068513;28;20204;-77
2020/12/09 11:41:14;;;;;;;25.52;18.30;;;2.90;99.90;;;;;;5067411;28;20232;-77
2020/12/09 11:43:44;;;;;;;34.83;21.33;;;2.90;99.90;;;;;;5067384;28;20809;-77
2020/12/09 11:46:10;;;;;;;29.23;19.20;;;2.80;99.90;;;;;;5068196;28;20208;-77
2020/12/09 11:48:37;;;;;;;27.35;18.25;;;2.70;99.90;;;;;;5068510;28;20717;-76
2020/12/09 11:51:03;;;;;;;31.23;20.67;;;2.70;99.90;;;;;;5067906;28;20201;-77
2020/12/09 11:53:29;;;;;;;28.80;18.80;;;2.70;99.90;;;;;;5061179;28;20267;-76
2020/12/09 11:55:55;;;;;;;26.45;18.05;;;2.70;99.90;;;;;;5067859;28;20208;-77
2020/12/09 11:58:22;;;;;;;32.40;19.30;;;2.70;99.90;;;;;;5068368;28;20203;-77
2020/12/09 12:00:49;;;;;;;25.73;17.25;;;2.70;99.90;;;;;;5069816;28;20220;-76
2020/12/09 12:03:15;;;;;;;28.25;19.30;;;2.70;99.90;;;;;;5068063;28;20518;-77
2020/12/09 12:05:42;;;;;;;28.65;19.75;;;2.70;99.90;;;;;;5068162;28;20204;-77
2020/12/09 12:08:09;;;;;;;30.08;19.35;;;2.60;99.90;;;;;;5067745;28;20231;-77
2020/12/09 12:10:35;;;;;;;31.30;20.13;;;2.60;99.90;;;;;;5068024;28;20197;-77
2020/12/09 12:13:02;;;;;;;31.85;19.77;;;2.60;99.90;;;;;;5068432;28;20228;-77
2020/12/09 12:15:29;;;;;;;35.75;20.10;;;2.60;99.90;;;;;;5126225;22;20904;-75
2020/12/09 12:17:56;;;;;;;29.15;18.73;;;2.60;99.90;;;;;;5050255;28;20212;-74
2020/12/09 12:20:22;;;;;;;36.17;20.65;;;2.60;99.90;;;;;;5057860;28;20220;-75
2020/12/09 12:22:48;;;;;;;34.75;22.38;;;2.60;99.90;;;;;;5068240;28;20279;-74
2020/12/09 12:25:14;;;;;;;34.53;20.27;;;2.60;99.90;;;;;;5067714;28;20200;-74
2020/12/09 12:27:40;;;;;;;31.33;19.30;;;2.60;99.90;;;;;;5068777;28;20257;-75
2020/12/09 12:30:07;;;;;;;36.15;19.77;;;2.60;99.90;;;;;;5066573;28;20192;-75
2020/12/09 12:32:33;;;;;;;33.50;19.90;;;2.50;99.90;;;;;;5066911;28;20220;-74
2020/12/09 12:35:00;;;;;;;35.33;22.10;;;2.60;99.90;;;;;;5067091;28;20671;-75
2020/12/09 12:37:27;;;;;;;37.83;22.02;;;2.60;99.90;;;;;;5067185;28;20705;-74
2020/12/09 12:39:53;;;;;;;36.40;22.08;;;2.50;99.90;;;;;;5067319;28;20219;-75